Country
Station

 

Weather  for  Santa Maria, Santa Maria Public Airport  -  United States    United States

  
12 °C (54 °F)
    
 
 

Current METAR for Santa Maria, Santa Maria Public Airport is :

KSMX 211751Z 34006KT 10SM BKN200 12/05 A3036 RMK AO2 SLP285 T01170050 10117 20017 53024 $

 

This is a report for Santa Maria, Santa Maria Public Airport - United States.
 
The report was made 16 minutes ago, at 17:51 UTC .
The wind was blowing at a speed of 3.1 meters per second (6.9 miles per hour) from north/northwest (340°).
 
The temperature was 12 °C (54 °F), with a dew-point at 5 °C (41 °F).
The atmospheric pressure was 1028 hPa (30.36 inHg).
The relative humidity was 62.2%.
 
There were broken clouds at a height of 6096 meters (20000 feet).
 
The overall visibility was 16.1 kilometers (10.0 miles).
 

 
 
 
 

Country :   A   B   C   D   E   F   G   H   I   J   K   L   M   N   O   P   Q   R   S   T   U   V   W   Y   Z

 

Site Info  |  Disclaimer  |  Credits  |  Privacy
Contact us  |  Add to favorites
© 2013-2018 METARs - All rights reserved